createdAt,value
2018-10-19T00:01:24.067Z,87.02
2018-10-19T00:03:53.103Z,87.00
2018-10-19T00:06:22.132Z,87.45
2018-10-19T00:08:51.160Z,87.05
2018-10-19T00:11:20.203Z,87.58
2018-10-19T00:13:49.303Z,87.57
2018-10-19T00:16:18.328Z,87.52
2018-10-19T00:18:47.395Z,87.66
2018-10-19T00:21:16.424Z,87.65
2018-10-19T00:23:45.513Z,87.47
2018-10-19T00:26:14.594Z,87.59
2018-10-19T00:28:43.604Z,87.76
2018-10-19T00:31:12.714Z,87.38
2018-10-19T00:33:41.760Z,87.69
2018-10-19T00:36:10.779Z,87.69
2018-10-19T00:38:39.815Z,87.88
2018-10-19T00:41:08.935Z,88.20
2018-10-19T00:43:37.881Z,88.04
2018-10-19T00:46:06.899Z,88.45
2018-10-19T00:48:35.947Z,88.47
2018-10-19T00:51:05.055Z,88.67
2018-10-19T00:53:34.391Z,88.61
2018-10-19T00:56:03.412Z,88.22
2018-10-19T00:58:32.436Z,88.03
2018-10-19T01:01:01.599Z,88.55
2018-10-19T01:03:30.621Z,88.53
2018-10-19T01:05:59.679Z,88.51
2018-10-19T01:08:28.697Z,88.16
2018-10-19T01:10:57.792Z,88.79
2018-10-19T01:13:26.760Z,88.09
2018-10-19T01:15:55.803Z,88.00
2018-10-19T01:18:24.858Z,88.87
2018-10-19T01:20:53.983Z,88.99
2018-10-19T01:23:22.988Z,89.66
2018-10-19T01:25:52.001Z,89.22
2018-10-19T01:28:21.054Z,88.85
2018-10-19T01:30:50.047Z,88.81
2018-10-19T01:33:19.234Z,88.62
2018-10-19T01:35:48.235Z,88.70
2018-10-19T01:38:17.275Z,89.11
2018-10-19T01:40:46.318Z,88.45
2018-10-19T01:43:15.370Z,88.84
2018-10-19T01:45:58.763Z,88.73
2018-10-19T01:48:28.350Z,89.93
2018-10-19T01:50:58.076Z,89.72
2018-10-19T01:53:27.206Z,89.67
2018-10-19T01:55:56.267Z,89.75
2018-10-19T01:58:26.287Z,89.77
2018-10-19T02:00:55.389Z,89.90
2018-10-19T02:03:24.419Z,89.33
2018-10-19T02:05:53.444Z,89.34
2018-10-19T02:08:22.537Z,90.22
2018-10-19T02:10:51.543Z,89.71
2018-10-19T02:13:20.932Z,90.10
2018-10-19T02:15:49.924Z,90.06
2018-10-19T02:18:18.975Z,89.65
2018-10-19T02:20:48.076Z,89.93
2018-10-19T02:23:17.196Z,90.03
2018-10-19T02:25:46.130Z,89.77
2018-10-19T02:28:15.177Z,89.57
2018-10-19T02:30:44.365Z,89.85
2018-10-19T02:33:13.467Z,90.04
2018-10-19T02:35:42.371Z,89.66
2018-10-19T02:38:11.397Z,89.71
2018-10-19T02:40:40.426Z,90.18
2018-10-19T02:43:09.458Z,89.97
2018-10-19T02:45:41.864Z,90.04
2018-10-19T02:48:11.711Z,90.25
2018-10-19T02:50:40.786Z,89.99
2018-10-19T02:53:09.804Z,90.81
2018-10-19T02:55:38.836Z,90.17
2018-10-19T02:58:07.847Z,90.00
2018-10-19T03:00:36.884Z,90.26
2018-10-19T03:03:05.950Z,90.72
2018-10-19T03:05:34.919Z,90.27
2018-10-19T03:08:03.950Z,90.25
2018-10-19T03:10:32.960Z,89.69
2018-10-19T03:13:02.019Z,90.43
2018-10-19T03:15:31.043Z,90.41
2018-10-19T03:18:00.061Z,90.37
2018-10-19T03:20:29.075Z,89.83
2018-10-19T03:22:58.096Z,90.37
2018-10-19T03:25:27.148Z,90.94
2018-10-19T03:27:56.195Z,90.62
2018-10-19T03:30:25.411Z,90.33
2018-10-19T03:32:54.433Z,90.78
2018-10-19T03:35:23.522Z,90.49
2018-10-19T03:37:52.536Z,90.59
2018-10-19T03:40:21.643Z,90.99
2018-10-19T03:42:50.713Z,90.51
2018-10-19T03:45:19.720Z,90.51
2018-10-19T03:47:48.752Z,90.85
2018-10-19T03:50:17.772Z,90.95
2018-10-19T03:52:46.799Z,90.68
2018-10-19T03:55:15.810Z,90.54
2018-10-19T03:57:44.831Z,90.66
2018-10-19T04:00:13.866Z,90.35
2018-10-19T04:02:42.925Z,90.76
2018-10-19T04:05:11.973Z,91.04
2018-10-19T04:07:40.956Z,90.47
2018-10-19T04:10:09.994Z,90.47
2018-10-19T04:12:39.116Z,90.69
2018-10-19T04:15:08.845Z,90.21
2018-10-19T04:17:37.808Z,90.24
2018-10-19T04:20:06.844Z,90.68
2018-10-19T04:22:35.892Z,90.78
2018-10-19T04:25:05.208Z,90.81
2018-10-19T04:27:34.259Z,90.92
2018-10-19T04:30:05.803Z,90.99
2018-10-19T04:32:34.848Z,90.57
2018-10-19T04:35:04.026Z,90.20
2018-10-19T04:37:32.983Z,90.50
2018-10-19T04:40:01.996Z,90.55
2018-10-19T04:42:31.036Z,90.25
2018-10-19T04:45:00.063Z,89.99
2018-10-19T04:47:29.181Z,90.22
2018-10-19T04:49:58.175Z,89.99
2018-10-19T04:52:27.245Z,91.17
2018-10-19T04:54:56.263Z,90.21
2018-10-19T04:57:25.463Z,90.70
2018-10-19T04:59:54.492Z,90.53
2018-10-19T05:02:23.535Z,90.91
2018-10-19T05:04:52.616Z,91.24
2018-10-19T05:07:21.553Z,90.25
2018-10-19T05:09:50.587Z,90.55
2018-10-19T05:12:19.678Z,90.31
2018-10-19T05:14:48.640Z,90.74
2018-10-19T05:17:17.670Z,90.55
2018-10-19T05:19:46.713Z,90.22
2018-10-19T05:22:15.737Z,90.69
2018-10-19T05:24:44.800Z,90.07
2018-10-19T05:29:48.917Z,90.47
2018-10-19T05:32:18.004Z,90.83
2018-10-19T05:34:47.015Z,90.58
2018-10-19T05:37:16.108Z,90.75
2018-10-19T05:39:45.169Z,90.36
2018-10-19T05:42:14.168Z,91.06
2018-10-19T05:44:43.208Z,90.66
2018-10-19T05:47:12.239Z,90.18
2018-10-19T05:49:41.255Z,90.49
2018-10-19T05:52:10.351Z,91.09
2018-10-19T05:54:39.236Z,90.84
2018-10-19T05:57:08.260Z,90.78
2018-10-19T05:59:37.272Z,90.54
2018-10-19T06:02:06.856Z,90.52
2018-10-19T06:04:35.780Z,90.90
2018-10-19T06:07:05.166Z,91.33
2018-10-19T06:09:34.420Z,90.83
2018-10-19T06:12:03.479Z,90.98
2018-10-19T06:14:32.584Z,91.02
2018-10-19T06:17:01.663Z,90.41
2018-10-19T06:19:30.625Z,90.72
2018-10-19T06:21:59.656Z,90.60
2018-10-19T06:24:28.679Z,91.28
2018-10-19T06:26:57.706Z,91.02
2018-10-19T06:29:26.716Z,91.28
2018-10-19T06:31:55.782Z,90.73
2018-10-19T06:34:24.867Z,90.90
2018-10-19T06:36:53.874Z,90.40
2018-10-19T06:39:22.915Z,90.31
2018-10-19T06:41:51.927Z,90.52
2018-10-19T06:44:21.014Z,90.00
2018-10-19T06:46:50.307Z,89.84
2018-10-19T06:49:19.267Z,90.09
2018-10-19T06:51:48.307Z,90.25
2018-10-19T06:54:17.470Z,89.99
2018-10-19T06:56:46.508Z,89.94
2018-10-19T06:59:16.059Z,89.80
2018-10-19T07:01:45.150Z,89.67
2018-10-19T07:04:14.156Z,89.61
2018-10-19T07:06:43.195Z,89.44
2018-10-19T07:09:12.239Z,89.20
2018-10-19T07:11:41.263Z,89.21
2018-10-19T07:14:10.442Z,88.79
2018-10-19T07:16:39.367Z,88.72
2018-10-19T07:19:08.475Z,88.64
2018-10-19T07:21:37.445Z,88.11
2018-10-19T07:24:06.562Z,88.22
2018-10-19T07:26:35.637Z,88.21
2018-10-19T07:29:04.824Z,87.25
2018-10-19T07:31:33.840Z,87.40
2018-10-19T07:34:02.910Z,86.86
2018-10-19T07:36:32.060Z,86.71
2018-10-19T07:39:01.023Z,86.98
2018-10-19T07:41:30.360Z,86.66
2018-10-19T07:43:59.510Z,86.29
2018-10-19T07:46:28.460Z,86.22
2018-10-19T07:48:57.496Z,85.94
2018-10-19T07:51:26.528Z,84.84
2018-10-19T07:53:55.641Z,85.25
2018-10-19T07:56:24.660Z,85.27
2018-10-19T07:58:53.750Z,84.38
2018-10-19T08:01:22.750Z,85.36
2018-10-19T08:03:52.071Z,84.95
2018-10-19T08:06:21.120Z,84.78
2018-10-19T08:08:50.143Z,83.97
2018-10-19T08:11:19.207Z,83.54
2018-10-19T08:13:48.263Z,84.16
2018-10-19T08:16:17.284Z,83.27
2018-10-19T08:18:46.364Z,82.91
2018-10-19T08:21:15.479Z,82.91
2018-10-19T08:23:44.682Z,82.64
2018-10-19T08:26:13.797Z,81.91
2018-10-19T08:28:42.727Z,80.95
2018-10-19T08:31:11.835Z,81.92
2018-10-19T08:33:40.936Z,80.77
2018-10-19T08:36:09.976Z,80.27
2018-10-19T08:38:39.023Z,80.45
2018-10-19T08:41:08.143Z,79.76
2018-10-19T08:43:37.124Z,80.17
2018-10-19T08:46:11.712Z,79.56
2018-10-19T08:48:40.807Z,78.90
2018-10-19T08:51:09.901Z,78.40
2018-10-19T08:53:38.995Z,77.39
2018-10-19T08:56:08.044Z,77.35
2018-10-19T08:58:37.136Z,76.74
2018-10-19T09:01:06.347Z,76.46
2018-10-19T09:03:35.451Z,75.98
2018-10-19T09:06:04.729Z,75.26
2018-10-19T09:08:33.795Z,75.45
2018-10-19T09:11:02.869Z,74.62
2018-10-19T09:13:31.987Z,74.63
2018-10-19T09:16:00.990Z,74.37
2018-10-19T09:18:30.072Z,73.84
2018-10-19T09:20:59.089Z,72.62
2018-10-19T09:23:28.059Z,72.49
2018-10-19T09:25:57.107Z,71.98
2018-10-19T09:28:26.133Z,71.35
2018-10-19T09:30:55.404Z,71.17
2018-10-19T09:33:24.418Z,70.15
2018-10-19T09:35:53.461Z,69.74
2018-10-19T09:38:22.503Z,69.75
2018-10-19T09:40:51.573Z,68.12
2018-10-19T09:43:20.603Z,69.10
2018-10-19T09:45:49.630Z,68.11
2018-10-19T09:48:18.887Z,68.17
2018-10-19T09:50:47.960Z,68.23
2018-10-19T09:53:17.031Z,67.48
2018-10-19T09:55:46.069Z,67.12
2018-10-19T09:58:15.088Z,66.15
2018-10-19T10:00:49.484Z,66.57
2018-10-19T10:03:18.517Z,65.37
2018-10-19T10:05:47.571Z,64.54
2018-10-19T10:08:16.592Z,64.95
2018-10-19T10:10:45.815Z,65.01
2018-10-19T10:13:15.025Z,64.37
2018-10-19T10:15:44.024Z,63.88
2018-10-19T10:18:13.004Z,63.52
2018-10-19T10:20:42.035Z,63.75
2018-10-19T10:23:11.084Z,63.17
2018-10-19T10:25:40.127Z,62.75
2018-10-19T10:28:09.200Z,63.74
2018-10-19T10:30:38.284Z,62.52
2018-10-19T10:33:07.366Z,61.72
2018-10-19T10:35:36.400Z,62.05
2018-10-19T10:38:05.851Z,62.47
2018-10-19T10:40:34.902Z,61.83
2018-10-19T10:43:04.004Z,61.78
2018-10-19T10:45:33.024Z,61.15
2018-10-19T10:48:02.059Z,60.87
2018-10-19T10:50:31.093Z,60.69
2018-10-19T10:53:00.118Z,60.67
2018-10-19T10:55:29.144Z,60.55
2018-10-19T10:57:58.229Z,60.33
2018-10-19T11:00:27.330Z,60.58
2018-10-19T11:02:56.341Z,60.33
2018-10-19T11:05:25.428Z,60.09
2018-10-19T11:07:54.468Z,60.30
2018-10-19T11:10:23.504Z,59.62
2018-10-19T11:12:52.574Z,58.72
2018-10-19T11:15:21.601Z,59.40
2018-10-19T11:17:50.632Z,58.24
2018-10-19T11:20:19.643Z,58.73
2018-10-19T11:22:48.694Z,57.92
2018-10-19T11:27:46.843Z,57.47
2018-10-19T11:30:15.891Z,57.35
2018-10-19T11:32:44.935Z,56.89
2018-10-19T11:35:14.109Z,57.33
2018-10-19T11:37:43.290Z,57.38
2018-10-19T11:40:34.999Z,57.12
2018-10-19T11:43:04.122Z,56.91
2018-10-19T11:45:33.996Z,57.06
2018-10-19T11:48:03.131Z,56.61
2018-10-19T11:50:32.191Z,57.20
2018-10-19T11:53:01.315Z,56.90
2018-10-19T11:55:30.361Z,56.89
2018-10-19T11:57:59.373Z,55.60
2018-10-19T12:00:28.450Z,56.27
2018-10-19T12:02:57.508Z,55.78
2018-10-19T12:05:26.567Z,56.21
2018-10-19T12:07:55.596Z,56.37
2018-10-19T12:10:24.707Z,55.43
2018-10-19T12:12:53.771Z,55.16
2018-10-19T12:15:23.025Z,54.75
2018-10-19T12:17:52.027Z,55.64
2018-10-19T12:20:21.087Z,54.10
2018-10-19T12:22:50.114Z,54.87
2018-10-19T12:25:19.143Z,54.62
2018-10-19T12:27:48.259Z,54.86
2018-10-19T12:30:17.283Z,54.57
2018-10-19T12:32:46.332Z,53.63
2018-10-19T12:35:15.476Z,53.91
2018-10-19T12:37:44.548Z,53.38
2018-10-19T12:40:13.589Z,54.21
2018-10-19T12:42:42.707Z,53.67
2018-10-19T12:46:27.312Z,53.45
2018-10-19T12:48:56.731Z,53.70
2018-10-19T12:51:25.715Z,53.02
2018-10-19T12:53:54.846Z,52.31
2018-10-19T12:56:24.107Z,53.66
2018-10-19T12:58:53.883Z,53.16
2018-10-19T13:01:23.944Z,52.59
2018-10-19T13:03:53.309Z,55.09
2018-10-19T13:06:22.407Z,55.31
2018-10-19T13:08:51.837Z,54.16
2018-10-19T13:11:20.846Z,55.28
2018-10-19T13:13:49.900Z,55.35
2018-10-19T13:16:18.943Z,55.51
2018-10-19T13:18:47.981Z,54.01
2018-10-19T13:21:17.132Z,54.62
2018-10-19T13:23:46.060Z,54.69
2018-10-19T13:26:15.088Z,55.36
2018-10-19T13:28:44.179Z,56.27
2018-10-19T13:31:13.195Z,56.13
2018-10-19T13:33:42.255Z,55.24
2018-10-19T13:36:11.434Z,55.32
2018-10-19T13:38:40.395Z,55.42
2018-10-19T13:41:09.441Z,54.88
2018-10-19T13:43:39.032Z,54.28
2018-10-19T13:46:08.071Z,55.31
2018-10-19T13:48:37.129Z,54.07
2018-10-19T13:51:06.212Z,55.14
2018-10-19T13:53:35.231Z,54.74
2018-10-19T13:56:04.248Z,53.77
2018-10-19T13:58:33.317Z,54.15
2018-10-19T14:01:02.728Z,53.83
2018-10-19T14:03:31.771Z,53.31
2018-10-19T14:06:00.796Z,54.22
2018-10-19T14:08:29.811Z,54.04
2018-10-19T14:10:58.942Z,53.55
2018-10-19T14:13:27.915Z,53.19
2018-10-19T14:15:56.950Z,53.60
2018-10-19T14:18:25.978Z,53.79
2018-10-19T14:20:55.009Z,51.83
2018-10-19T14:23:24.021Z,53.96
2018-10-19T14:25:53.038Z,53.37
2018-10-19T14:28:22.087Z,54.85
2018-10-19T14:30:51.152Z,55.14
2018-10-19T14:33:20.336Z,55.19
2018-10-19T14:35:49.258Z,55.10
2018-10-19T14:38:18.295Z,55.67
2018-10-19T14:40:47.327Z,54.91
2018-10-19T14:43:16.387Z,55.09
2018-10-19T14:45:45.395Z,55.04
2018-10-19T14:48:14.403Z,55.01
2018-10-19T14:50:43.438Z,56.18
2018-10-19T14:53:12.487Z,55.53
2018-10-19T14:55:41.750Z,56.49
2018-10-19T14:58:10.811Z,56.51
2018-10-19T15:00:39.855Z,55.65
2018-10-19T15:03:08.923Z,56.54
2018-10-19T15:05:37.926Z,56.91
2018-10-19T15:08:06.955Z,56.19
2018-10-19T15:10:36.216Z,57.78
2018-10-19T15:13:05.075Z,57.77
2018-10-19T15:15:34.116Z,57.72
2018-10-19T15:18:03.183Z,58.04
2018-10-19T15:20:32.222Z,58.39
2018-10-19T15:23:01.236Z,59.06
2018-10-19T15:25:30.280Z,58.55
2018-10-19T15:27:59.350Z,59.18
2018-10-19T15:30:28.380Z,59.10
2018-10-19T15:32:57.573Z,59.62
2018-10-19T15:35:26.575Z,60.25
2018-10-19T15:37:55.587Z,59.65
2018-10-19T15:40:24.644Z,60.84
2018-10-19T15:42:53.674Z,60.95
2018-10-19T15:45:22.708Z,61.50
2018-10-19T15:47:51.739Z,61.81
2018-10-19T15:50:20.808Z,62.62
2018-10-19T15:52:49.842Z,61.99
2018-10-19T15:55:18.872Z,62.49
2018-10-19T15:57:47.923Z,62.00
2018-10-19T16:00:16.987Z,63.46
2018-10-19T16:02:45.980Z,63.46
2018-10-19T16:05:15.042Z,64.20
2018-10-19T16:07:44.076Z,64.42
2018-10-19T16:10:13.135Z,64.32
2018-10-19T16:12:42.107Z,64.65
2018-10-19T16:15:11.638Z,65.47
2018-10-19T16:17:40.910Z,65.85
2018-10-19T16:20:10.575Z,66.24
2018-10-19T16:22:39.611Z,67.02
2018-10-19T16:25:09.107Z,67.44
2018-10-19T16:27:39.132Z,67.29
2018-10-19T16:30:09.141Z,67.67
2018-10-19T16:32:38.979Z,68.22
2018-10-19T16:35:08.376Z,68.17
2018-10-19T16:37:37.933Z,68.97
2018-10-19T16:40:07.067Z,69.78
2018-10-19T16:42:36.102Z,69.41
2018-10-19T16:45:06.231Z,69.89
2018-10-19T16:47:35.276Z,69.74
2018-10-19T16:50:04.447Z,70.06
2018-10-19T16:52:33.572Z,70.83
2018-10-19T16:55:02.580Z,71.29
2018-10-19T16:57:32.026Z,71.69
2018-10-19T17:00:01.116Z,72.08
2018-10-19T17:02:30.185Z,72.69
2018-10-19T17:04:59.252Z,72.60
2018-10-19T17:07:28.371Z,72.39
2018-10-19T17:09:57.394Z,72.33
2018-10-19T17:12:26.408Z,72.60
2018-10-19T17:14:55.487Z,72.82
2018-10-19T17:17:24.472Z,73.12
2018-10-19T17:19:53.512Z,73.18
2018-10-19T17:22:22.531Z,73.27
2018-10-19T17:24:51.654Z,73.80
2018-10-19T17:27:20.735Z,73.45
2018-10-19T17:29:49.756Z,73.48
2018-10-19T17:32:18.783Z,73.72
2018-10-19T17:34:47.811Z,73.62
2018-10-19T17:37:16.959Z,74.08
2018-10-19T17:39:46.042Z,73.87
2018-10-19T17:42:15.116Z,74.07
2018-10-19T17:44:44.086Z,74.04
2018-10-19T17:47:13.171Z,74.50
2018-10-19T17:49:42.146Z,74.53
2018-10-19T17:52:11.160Z,74.45
2018-10-19T17:54:40.205Z,74.26
2018-10-19T17:57:09.268Z,73.88
2018-10-19T17:59:38.290Z,74.48
2018-10-19T18:02:07.303Z,73.96
2018-10-19T18:04:36.416Z,74.42
2018-10-19T18:07:05.791Z,74.56
2018-10-19T18:09:34.939Z,75.06
2018-10-19T18:12:03.972Z,75.47
2018-10-19T18:14:33.007Z,75.27
2018-10-19T18:17:02.155Z,75.29
2018-10-19T18:19:31.176Z,75.97
2018-10-19T18:22:00.288Z,76.40
2018-10-19T18:24:29.273Z,76.26
2018-10-19T18:26:58.320Z,75.91
2018-10-19T18:29:27.363Z,76.03
2018-10-19T18:31:56.447Z,75.87
2018-10-19T18:34:25.414Z,75.82
2018-10-19T18:36:54.451Z,76.10
2018-10-19T18:39:23.482Z,76.22
2018-10-19T18:41:52.543Z,75.91
2018-10-19T18:44:21.716Z,76.13
2018-10-19T18:46:50.805Z,76.11
2018-10-19T18:49:19.931Z,75.93
2018-10-19T18:51:49.177Z,75.71
2018-10-19T18:54:18.336Z,75.97
2018-10-19T18:56:47.460Z,75.91
2018-10-19T18:59:16.698Z,75.40
2018-10-19T19:01:45.696Z,75.40
2018-10-19T19:04:14.782Z,75.36
2018-10-19T19:06:43.799Z,75.25
2018-10-19T19:09:14.319Z,75.62
2018-10-19T19:11:44.151Z,76.09
2018-10-19T19:14:14.226Z,76.49
2018-10-19T19:16:43.381Z,76.43
2018-10-19T19:19:12.444Z,76.08
2018-10-19T19:21:41.475Z,77.15
2018-10-19T19:24:15.767Z,77.27
2018-10-19T19:26:44.820Z,77.43
2018-10-19T19:29:13.912Z,78.26
2018-10-19T19:31:42.962Z,78.21
2018-10-19T19:41:34.775Z,78.32
2018-10-19T19:44:03.888Z,78.14
2018-10-19T19:46:32.875Z,78.96
2018-10-19T19:49:07.531Z,78.33
2018-10-19T19:51:36.651Z,78.75
2018-10-19T19:54:06.043Z,79.30
2018-10-19T19:56:35.440Z,79.82
2018-10-19T19:59:04.609Z,79.97
2018-10-19T20:01:33.627Z,80.55
2018-10-19T20:04:02.679Z,80.64
2018-10-19T20:06:31.709Z,80.82
2018-10-19T20:09:00.763Z,80.87
2018-10-19T20:11:29.807Z,80.54
2018-10-19T20:13:58.914Z,80.73
2018-10-19T20:16:27.893Z,81.66
2018-10-19T20:18:56.915Z,81.98
2018-10-19T20:21:25.963Z,82.49
2018-10-19T20:23:54.975Z,82.61
2018-10-19T20:26:24.011Z,81.95
2018-10-19T20:28:53.056Z,81.61
2018-10-19T20:31:22.111Z,80.69
2018-10-19T20:33:51.145Z,81.14
2018-10-19T20:36:20.188Z,81.16
2018-10-19T20:38:49.371Z,80.75
2018-10-19T20:41:18.439Z,81.18
2018-10-19T20:43:47.439Z,80.83
2018-10-19T20:46:16.471Z,80.90
2018-10-19T20:48:45.507Z,80.40
2018-10-19T20:51:14.623Z,80.42
2018-10-19T20:53:44.008Z,80.21
2018-10-19T20:56:13.167Z,80.25
2018-10-19T20:58:42.171Z,80.04
2018-10-19T21:01:11.246Z,80.06
2018-10-19T21:03:40.283Z,80.23
2018-10-19T21:06:09.349Z,79.91
2018-10-19T21:08:38.397Z,80.32
2018-10-19T21:11:08.062Z,79.88
2018-10-19T21:13:37.067Z,80.01
2018-10-19T21:16:06.331Z,79.69
2018-10-19T21:18:35.356Z,79.42
2018-10-19T21:21:04.681Z,79.39
2018-10-19T21:23:33.732Z,78.70
2018-10-19T21:26:02.782Z,78.64
2018-10-19T21:28:31.803Z,78.59
2018-10-19T21:31:00.831Z,78.59
2018-10-19T21:33:29.876Z,78.63
2018-10-19T21:35:58.904Z,78.32
2018-10-19T21:38:27.935Z,77.07
2018-10-19T21:40:56.992Z,77.04
2018-10-19T21:43:26.020Z,76.70
2018-10-19T21:45:55.062Z,76.66
2018-10-19T21:48:24.083Z,76.60
2018-10-19T21:50:53.184Z,77.04
2018-10-19T21:53:22.217Z,76.79
2018-10-19T21:55:51.323Z,76.94
2018-10-19T21:58:20.367Z,76.97
2018-10-19T22:00:49.438Z,76.99
2018-10-19T22:03:18.456Z,77.04
2018-10-19T22:05:47.492Z,77.07
2018-10-19T22:08:16.520Z,77.37
2018-10-19T22:10:45.552Z,77.42
2018-10-19T22:13:14.663Z,77.96
2018-10-19T22:15:43.630Z,77.61
2018-10-19T22:18:12.692Z,77.92
2018-10-19T22:20:41.723Z,77.87
2018-10-19T22:23:11.091Z,77.90
2018-10-19T22:25:40.071Z,78.05
2018-10-19T22:28:09.083Z,77.78
2018-10-19T22:30:38.127Z,78.20
2018-10-19T22:33:07.152Z,77.95
2018-10-19T22:35:36.195Z,77.91
2018-10-19T22:38:05.219Z,77.77
2018-10-19T22:40:34.440Z,78.13
2018-10-19T22:43:03.514Z,78.09
2018-10-19T22:45:32.499Z,78.01
2018-10-19T22:48:01.541Z,77.82
2018-10-19T22:50:30.824Z,78.10
2018-10-19T22:53:02.841Z,78.15
2018-10-19T22:55:31.871Z,78.75
2018-10-19T22:58:01.319Z,79.23
2018-10-19T23:00:30.371Z,79.46
2018-10-19T23:02:59.390Z,79.21
2018-10-19T23:05:28.432Z,79.20
2018-10-19T23:07:57.485Z,79.23
2018-10-19T23:10:26.638Z,79.19
2018-10-19T23:12:55.754Z,79.15
2018-10-19T23:15:24.787Z,79.56
2018-10-19T23:17:53.873Z,79.79
2018-10-19T23:20:22.923Z,80.00
2018-10-19T23:22:51.961Z,79.34
2018-10-19T23:25:21.004Z,79.65
2018-10-19T23:27:50.041Z,79.72
2018-10-19T23:30:19.102Z,80.10
2018-10-19T23:32:48.164Z,79.83
2018-10-19T23:35:17.335Z,79.32
2018-10-19T23:37:46.299Z,79.53
2018-10-19T23:40:15.255Z,78.24
2018-10-19T23:42:44.275Z,78.27
2018-10-19T23:45:13.339Z,78.19
2018-10-19T23:47:42.374Z,77.45
2018-10-19T23:50:11.531Z,77.00
2018-10-19T23:52:40.556Z,76.18
2018-10-19T23:55:09.646Z,77.03
2018-10-19T23:57:38.615Z,76.05
